createdAt,value
2023-11-23T00:04:42.168Z,5.80
2023-11-23T00:07:54.397Z,7.17
2023-11-23T00:11:06.409Z,6.80
2023-11-23T00:14:18.258Z,8.43
2023-11-23T00:17:31.927Z,7.43
2023-11-23T00:20:26.678Z,5.30
2023-11-23T00:23:29.390Z,5.47
2023-11-23T00:26:35.344Z,5.33
2023-11-23T00:29:30.550Z,5.00
2023-11-23T00:32:42.391Z,6.10
2023-11-23T00:35:45.499Z,8.00
2023-11-23T00:38:57.217Z,6.67
2023-11-23T00:41:54.682Z,3.93
2023-11-23T00:44:49.108Z,4.17
2023-11-23T00:47:21.222Z,5.23
2023-11-23T00:49:52.678Z,5.30
2023-11-23T00:52:26.727Z,4.43
2023-11-23T00:55:30.030Z,5.77
2023-11-23T00:58:42.021Z,5.07
2023-11-23T01:01:55.757Z,3.90
2023-11-23T01:04:51.111Z,5.80
2023-11-23T01:07:22.375Z,6.17
2023-11-23T01:10:18.421Z,5.60
2023-11-23T01:13:14.489Z,5.73
2023-11-23T01:16:28.073Z,4.50
2023-11-23T01:19:21.902Z,5.77
2023-11-23T01:22:33.671Z,4.47
2023-11-23T01:25:48.819Z,5.37
2023-11-23T01:28:53.360Z,5.63
2023-11-23T01:32:05.393Z,5.23
2023-11-23T01:35:11.929Z,4.40
2023-11-23T01:38:24.343Z,5.13
2023-11-23T01:41:30.261Z,5.67
2023-11-23T01:47:17.879Z,8.77
2023-11-23T01:50:15.146Z,4.50
2023-11-23T01:53:17.576Z,6.23
2023-11-23T01:56:12.799Z,5.67
2023-11-23T01:58:44.971Z,4.83
2023-11-23T02:01:57.279Z,5.17
2023-11-23T02:05:14.564Z,4.93
2023-11-23T02:08:25.432Z,6.83
2023-11-23T02:11:37.541Z,6.13
2023-11-23T02:14:21.500Z,5.70
2023-11-23T02:17:35.996Z,5.00
2023-11-23T02:20:50.951Z,6.07
2023-11-23T02:24:03.226Z,7.47
2023-11-23T02:26:58.975Z,3.87
2023-11-23T02:29:53.733Z,6.73
2023-11-23T02:32:54.782Z,6.13
2023-11-23T02:35:29.352Z,5.07
2023-11-23T02:38:53.810Z,5.47
2023-11-23T02:41:57.990Z,6.40
2023-11-23T02:44:52.882Z,4.87
2023-11-23T02:47:58.614Z,4.37
2023-11-23T02:51:00.508Z,7.90
2023-11-23T02:53:34.237Z,4.37
2023-11-23T02:56:46.848Z,3.60
2023-11-23T03:02:30.832Z,6.67
2023-11-23T03:05:35.553Z,4.20
2023-11-23T03:08:27.204Z,4.30
2023-11-23T03:11:23.057Z,5.33
2023-11-23T03:14:17.624Z,5.73
2023-11-23T03:17:12.401Z,4.60
2023-11-23T03:20:27.159Z,4.30
2023-11-23T03:23:38.857Z,6.57
2023-11-23T03:26:31.942Z,11.80
2023-11-23T03:29:32.616Z,4.57
2023-11-23T03:32:26.839Z,7.23
2023-11-23T03:35:13.551Z,6.83
2023-11-23T03:38:28.193Z,6.13
2023-11-23T03:41:40.055Z,7.37
2023-11-23T03:44:33.265Z,5.73
2023-11-23T03:47:29.809Z,6.33
2023-11-23T03:50:40.426Z,6.30
2023-11-23T03:53:30.552Z,6.33
2023-11-23T03:56:42.371Z,3.30
2023-11-23T03:59:33.989Z,7.50
2023-11-23T04:02:45.797Z,6.50
2023-11-23T04:05:41.282Z,6.97
2023-11-23T04:08:55.865Z,7.57
2023-11-23T04:12:00.320Z,6.70
2023-11-23T04:14:57.731Z,8.60
2023-11-23T04:17:51.930Z,4.50
2023-11-23T04:21:03.974Z,7.57
2023-11-23T04:23:48.621Z,7.47
2023-11-23T04:26:54.407Z,8.33
2023-11-23T04:29:49.537Z,8.23
2023-11-23T04:33:02.817Z,9.53
2023-11-23T04:35:47.329Z,7.80
2023-11-23T04:38:57.833Z,11.77
2023-11-23T04:42:03.922Z,8.50
2023-11-23T04:45:15.866Z,14.43
2023-11-23T04:48:27.856Z,10.73
2023-11-23T04:51:11.611Z,9.60
2023-11-23T04:54:23.495Z,11.27
2023-11-23T04:57:12.976Z,11.90
2023-11-23T05:00:26.462Z,8.77
2023-11-23T05:03:32.968Z,12.23
2023-11-23T05:06:08.671Z,13.87
2023-11-23T05:09:20.490Z,10.97
2023-11-23T05:14:59.118Z,15.43
2023-11-23T05:17:53.098Z,16.10
2023-11-23T05:21:05.920Z,10.40
2023-11-23T05:24:03.737Z,11.47
2023-11-23T05:27:16.650Z,14.10
2023-11-23T05:30:34.043Z,12.73
2023-11-23T05:33:48.494Z,12.50
2023-11-23T05:37:00.313Z,11.13
2023-11-23T05:42:57.565Z,10.33
2023-11-23T05:46:15.462Z,8.60
2023-11-23T05:49:07.866Z,13.20
2023-11-23T05:51:59.709Z,13.80
2023-11-23T05:55:12.824Z,12.80
2023-11-23T05:58:27.420Z,14.97
2023-11-23T06:01:39.141Z,11.17
2023-11-23T06:04:31.106Z,11.63
2023-11-23T06:07:43.462Z,16.50
2023-11-23T06:10:35.515Z,11.97
2023-11-23T06:13:50.369Z,17.13
2023-11-23T06:17:02.438Z,13.63
2023-11-23T06:20:03.138Z,14.20
2023-11-23T06:23:15.013Z,13.37
2023-11-23T06:26:33.273Z,13.50
2023-11-23T06:29:46.205Z,13.93
2023-11-23T06:32:50.482Z,13.07
2023-11-23T06:35:34.762Z,15.27
2023-11-23T06:38:22.835Z,12.80
2023-11-23T06:41:34.672Z,15.27
2023-11-23T06:44:17.035Z,15.40
2023-11-23T06:47:11.542Z,11.03
2023-11-23T06:50:23.426Z,11.70
2023-11-23T06:53:36.730Z,14.70
2023-11-23T06:56:14.399Z,11.27
2023-11-23T06:58:48.183Z,13.47
2023-11-23T07:02:00.267Z,12.03
2023-11-23T07:05:15.486Z,13.20
2023-11-23T07:08:10.761Z,13.23
2023-11-23T07:11:14.503Z,15.50
2023-11-23T07:14:26.207Z,14.90
2023-11-23T07:20:16.452Z,11.23
2023-11-23T07:23:28.949Z,13.47
2023-11-23T07:26:40.909Z,13.23
2023-11-23T07:29:52.735Z,10.50
2023-11-23T07:33:04.668Z,11.00
2023-11-23T07:38:50.950Z,12.00
2023-11-23T07:41:45.437Z,12.43
2023-11-23T07:44:57.357Z,14.17
2023-11-23T07:47:49.120Z,12.50
2023-11-23T07:51:01.600Z,13.23
2023-11-23T07:54:00.921Z,11.27
2023-11-23T07:57:12.865Z,11.10
2023-11-23T08:00:29.791Z,12.80
2023-11-23T08:03:31.817Z,10.30
2023-11-23T08:06:43.929Z,12.83
2023-11-23T08:09:40.885Z,12.50
2023-11-23T08:12:15.173Z,12.50
2023-11-23T08:15:03.790Z,11.90
2023-11-23T08:18:15.778Z,11.40
2023-11-23T08:21:26.762Z,10.73
2023-11-23T08:24:28.344Z,12.23
2023-11-23T08:27:39.397Z,16.00
2023-11-23T08:30:41.587Z,13.13
2023-11-23T08:33:53.612Z,13.60
2023-11-23T08:36:48.794Z,13.17
2023-11-23T08:39:21.951Z,13.23
2023-11-23T08:41:54.213Z,12.60
2023-11-23T08:45:10.881Z,12.23
2023-11-23T08:48:23.970Z,17.77
2023-11-23T08:51:25.637Z,11.77
2023-11-23T08:54:37.790Z,11.10
2023-11-23T08:57:52.558Z,10.10
2023-11-23T09:01:07.237Z,11.77
2023-11-23T09:04:10.376Z,12.23
2023-11-23T09:06:44.263Z,13.57
2023-11-23T09:09:38.857Z,9.97
2023-11-23T09:12:50.538Z,27.97
2023-11-23T09:16:02.550Z,14.67
2023-11-23T09:19:18.332Z,13.93
2023-11-23T09:22:30.381Z,10.17
2023-11-23T09:25:42.159Z,16.27
2023-11-23T09:28:14.351Z,14.63
2023-11-23T09:30:45.709Z,12.13
2023-11-23T09:33:20.775Z,11.63
2023-11-23T09:36:16.232Z,9.97
2023-11-23T09:38:53.327Z,15.43
2023-11-23T09:41:26.735Z,12.37
2023-11-23T09:44:21.185Z,13.00
2023-11-23T09:47:22.277Z,12.23
2023-11-23T09:50:24.184Z,11.23
2023-11-23T09:56:13.049Z,8.57
2023-11-23T09:59:25.278Z,7.30
2023-11-23T10:02:39.035Z,6.40
2023-11-23T10:05:21.569Z,7.10
2023-11-23T10:08:34.747Z,6.80
2023-11-23T10:11:42.483Z,4.97
2023-11-23T10:14:57.390Z,4.57
2023-11-23T10:17:49.435Z,5.00
2023-11-23T10:20:41.484Z,9.73
2023-11-23T10:23:53.395Z,6.53
2023-11-23T10:27:00.185Z,5.35
2023-11-23T10:30:13.707Z,9.95
2023-11-23T10:33:13.493Z,5.13
2023-11-23T10:36:29.062Z,9.55
2023-11-23T10:39:41.887Z,7.03
2023-11-23T10:42:57.246Z,7.68
2023-11-23T10:46:13.385Z,14.57
2023-11-23T10:49:06.245Z,6.18
2023-11-23T10:52:21.944Z,6.85
2023-11-23T10:55:26.066Z,9.87
2023-11-23T10:58:24.518Z,7.20
2023-11-23T11:01:38.480Z,8.65
2023-11-23T11:04:21.876Z,10.25
2023-11-23T11:07:01.345Z,5.90
2023-11-23T11:10:14.112Z,7.95
2023-11-23T11:13:15.628Z,7.22
2023-11-23T11:16:05.122Z,7.68
2023-11-23T11:18:58.321Z,9.77
2023-11-23T11:21:52.440Z,6.45
2023-11-23T11:24:47.424Z,8.38
2023-11-23T11:27:59.376Z,6.55
2023-11-23T11:31:15.466Z,6.40
2023-11-23T11:34:28.505Z,7.13
2023-11-23T11:37:44.677Z,6.82
2023-11-23T11:40:39.137Z,8.82
2023-11-23T11:43:40.943Z,8.68
2023-11-23T11:46:55.514Z,7.25
2023-11-23T11:49:54.705Z,10.18
2023-11-23T11:52:54.191Z,17.88
2023-11-23T11:55:37.799Z,14.27
2023-11-23T11:58:09.459Z,7.82
2023-11-23T12:01:01.181Z,10.60
2023-11-23T12:03:43.098Z,8.00
2023-11-23T12:06:46.520Z,7.15
2023-11-23T12:09:46.268Z,9.60
2023-11-23T12:12:59.144Z,6.65
2023-11-23T12:15:58.182Z,8.45
2023-11-23T12:18:56.250Z,20.27
2023-11-23T12:21:32.391Z,10.43
2023-11-23T12:24:12.742Z,9.35
2023-11-23T12:27:10.461Z,5.38
2023-11-23T12:29:55.711Z,8.20
2023-11-23T12:32:39.290Z,5.82
2023-11-23T12:35:14.627Z,9.27
2023-11-23T12:38:15.943Z,10.88
2023-11-23T12:40:48.051Z,8.15
2023-11-23T12:43:19.675Z,9.82
2023-11-23T12:45:51.382Z,9.30
2023-11-23T12:48:23.022Z,9.50
2023-11-23T12:51:37.720Z,12.85
2023-11-23T12:54:21.481Z,12.10
2023-11-23T12:57:13.877Z,12.60
2023-11-23T13:00:07.663Z,10.13
2023-11-23T13:02:54.087Z,15.57
2023-11-23T13:05:28.060Z,12.13
2023-11-23T13:08:14.028Z,10.32
2023-11-23T13:10:59.324Z,10.13
2023-11-23T13:13:36.608Z,12.00
2023-11-23T13:16:19.057Z,9.95
2023-11-23T13:19:30.205Z,13.48
2023-11-23T13:22:09.237Z,14.00
2023-11-23T13:25:18.313Z,10.60
2023-11-23T13:28:11.930Z,12.88
2023-11-23T13:30:44.628Z,10.23
2023-11-23T13:33:40.655Z,13.70
2023-11-23T13:36:29.735Z,12.75
2023-11-23T13:39:23.248Z,10.23
2023-11-23T13:42:38.525Z,10.05
2023-11-23T13:45:51.246Z,10.65
2023-11-23T13:49:04.585Z,13.88
2023-11-23T13:52:14.952Z,9.25
2023-11-23T13:58:01.066Z,15.25
2023-11-23T14:01:15.682Z,12.77
2023-11-23T14:04:27.941Z,13.57
2023-11-23T14:07:40.896Z,14.35
2023-11-23T14:10:46.293Z,12.27
2023-11-23T14:14:01.972Z,9.07
2023-11-23T14:17:15.250Z,15.70
2023-11-23T14:20:27.848Z,9.50
2023-11-23T14:23:19.779Z,14.55
2023-11-23T14:26:16.441Z,12.13
2023-11-23T14:28:49.172Z,12.40
2023-11-23T14:31:56.847Z,16.05
2023-11-23T14:34:48.473Z,13.82
2023-11-23T14:37:22.578Z,12.10
2023-11-23T14:40:29.542Z,10.38
2023-11-23T14:43:41.731Z,16.85
2023-11-23T14:46:56.492Z,14.25
2023-11-23T14:50:10.332Z,18.83
2023-11-23T14:52:48.941Z,21.73
2023-11-23T14:55:47.049Z,20.77
2023-11-23T14:58:59.592Z,20.77
2023-11-23T15:01:43.765Z,17.98
2023-11-23T15:04:59.648Z,16.02
2023-11-23T15:07:59.542Z,17.77
2023-11-23T15:11:11.855Z,18.13
2023-11-23T15:14:29.687Z,20.13
2023-11-23T15:17:22.074Z,19.52
2023-11-23T15:20:28.190Z,19.08
2023-11-23T15:23:24.016Z,18.15
2023-11-23T15:25:55.847Z,17.90
2023-11-23T15:28:47.569Z,16.67
2023-11-23T15:31:33.277Z,19.65
2023-11-23T15:34:46.039Z,17.52
2023-11-23T15:37:44.003Z,16.88
2023-11-23T15:40:56.556Z,17.92
2023-11-23T15:43:37.453Z,13.13
2023-11-23T15:46:50.651Z,15.90
2023-11-23T15:49:51.549Z,16.80
2023-11-23T15:52:55.328Z,13.93
2023-11-23T15:56:07.310Z,14.18
2023-11-23T15:59:00.573Z,11.25
2023-11-23T16:02:17.098Z,17.30
2023-11-23T16:04:58.409Z,12.00
2023-11-23T16:08:14.260Z,14.43
2023-11-23T16:11:06.125Z,9.60
2023-11-23T16:14:18.651Z,14.68
2023-11-23T16:16:58.031Z,11.68
2023-11-23T16:20:12.767Z,11.15
2023-11-23T16:23:28.192Z,11.23
2023-11-23T16:26:29.449Z,9.45
2023-11-23T16:29:41.408Z,10.77
2023-11-23T16:32:46.994Z,11.10
2023-11-23T16:35:39.020Z,9.88
2023-11-23T16:38:36.140Z,7.72
2023-11-23T16:41:48.151Z,6.93
2023-11-23T16:44:19.956Z,5.97
2023-11-23T16:47:21.662Z,6.88
2023-11-23T16:50:33.745Z,12.35
2023-11-23T16:53:48.920Z,7.20
2023-11-23T16:56:52.561Z,6.22
2023-11-23T16:59:28.194Z,5.93
2023-11-23T17:02:00.116Z,6.93
2023-11-23T17:05:15.790Z,8.38
2023-11-23T17:08:01.499Z,9.85
2023-11-23T17:10:36.286Z,6.68
2023-11-23T17:13:10.777Z,8.85
2023-11-23T17:16:21.571Z,7.72
2023-11-23T17:18:53.051Z,8.00
2023-11-23T17:21:49.019Z,9.80
2023-11-23T17:24:32.627Z,7.57
2023-11-23T17:27:07.509Z,6.10
2023-11-23T17:30:02.178Z,9.70
2023-11-23T17:32:54.379Z,10.60
2023-11-23T17:36:06.924Z,12.10
2023-11-23T17:39:17.281Z,8.35
2023-11-23T17:42:32.288Z,6.97
2023-11-23T17:45:48.981Z,7.78
2023-11-23T17:48:46.382Z,5.00
2023-11-23T17:51:58.561Z,8.57
2023-11-23T17:55:12.335Z,7.32
2023-11-23T17:58:11.345Z,6.22
2023-11-23T18:01:14.513Z,6.25
2023-11-23T18:04:16.975Z,16.40
2023-11-23T18:07:09.083Z,7.88
2023-11-23T18:10:21.812Z,10.20
2023-11-23T18:13:13.337Z,11.43
2023-11-23T18:15:50.014Z,9.95
2023-11-23T18:19:02.978Z,15.10
2023-11-23T18:22:15.791Z,28.27
2023-11-23T18:25:26.437Z,7.85
2023-11-23T18:28:41.033Z,4.07
2023-11-23T18:31:53.998Z,8.15
2023-11-23T18:34:26.343Z,5.65
2023-11-23T18:37:39.209Z,6.32
2023-11-23T18:40:18.414Z,9.63
2023-11-23T18:42:54.919Z,9.35
2023-11-23T18:45:53.624Z,8.77
2023-11-23T18:49:06.456Z,4.70
2023-11-23T18:52:05.835Z,7.43
2023-11-23T18:54:57.487Z,5.35
2023-11-23T18:57:42.864Z,12.18
2023-11-23T19:00:16.445Z,8.27
2023-11-23T19:03:20.276Z,5.75
2023-11-23T19:06:15.309Z,2.78
2023-11-23T19:08:48.925Z,5.45
2023-11-23T19:11:24.234Z,5.72
2023-11-23T19:14:38.872Z,2.53
2023-11-23T19:18:00.478Z,2.67
2023-11-23T19:21:10.496Z,1.60
2023-11-23T19:24:25.009Z,2.42
2023-11-23T19:27:34.003Z,1.38
2023-11-23T19:30:48.048Z,1.55
2023-11-23T19:33:33.281Z,0.77
2023-11-23T19:36:42.937Z,1.00
2023-11-23T19:39:32.001Z,6.15
2023-11-23T19:42:11.346Z,3.05
2023-11-23T19:45:10.375Z,6.53
2023-11-23T19:47:48.385Z,5.55
2023-11-23T19:50:26.495Z,4.03
2023-11-23T19:53:05.687Z,3.15
2023-11-23T19:55:57.470Z,1.80
2023-11-23T19:58:31.899Z,4.25
2023-11-23T20:01:20.440Z,4.10
2023-11-23T20:03:55.451Z,5.63
2023-11-23T20:06:32.683Z,4.32
2023-11-23T20:09:26.040Z,1.88
2023-11-23T20:12:00.678Z,6.05
2023-11-23T20:14:35.954Z,7.03
2023-11-23T20:17:11.801Z,4.23
2023-11-23T20:19:45.073Z,5.32
2023-11-23T20:22:23.259Z,8.97
2023-11-23T20:25:05.405Z,7.73
2023-11-23T20:27:41.341Z,8.83
2023-11-23T20:30:33.175Z,19.93
2023-11-23T20:33:10.007Z,10.77
2023-11-23T20:35:52.840Z,14.73
2023-11-23T20:39:05.023Z,13.10
2023-11-23T20:42:02.002Z,14.47
2023-11-23T20:44:58.245Z,12.73
2023-11-23T20:47:32.500Z,10.23
2023-11-23T20:50:24.277Z,12.10
2023-11-23T20:52:58.939Z,17.63
2023-11-23T20:55:31.816Z,15.77
2023-11-23T20:58:32.040Z,14.00
2023-11-23T21:01:08.053Z,12.97
2023-11-23T21:04:04.448Z,12.43
2023-11-23T21:07:11.428Z,12.90
2023-11-23T21:09:45.779Z,16.87
2023-11-23T21:12:25.022Z,14.07
2023-11-23T21:15:02.498Z,19.00
2023-11-23T21:17:38.209Z,16.30
2023-11-23T21:20:15.250Z,14.10
2023-11-23T21:22:50.018Z,18.43
2023-11-23T21:25:21.843Z,31.70
2023-11-23T21:28:07.386Z,10.30
2023-11-23T21:31:06.447Z,22.83
2023-11-23T21:33:41.515Z,20.90
2023-11-23T21:36:13.405Z,19.37
2023-11-23T21:38:45.994Z,15.90
2023-11-23T21:41:26.522Z,24.07
2023-11-23T21:43:58.478Z,14.47
2023-11-23T21:46:32.847Z,14.93
2023-11-23T21:49:04.610Z,19.37
2023-11-23T21:51:39.787Z,22.70
2023-11-23T21:54:14.496Z,20.97
2023-11-23T21:56:46.343Z,25.50
2023-11-23T21:59:19.092Z,13.60
2023-11-23T22:01:53.517Z,18.33
2023-11-23T22:04:34.415Z,12.53
2023-11-23T22:07:09.163Z,13.10
2023-11-23T22:09:54.497Z,20.93
2023-11-23T22:12:37.357Z,15.63
2023-11-23T22:15:10.881Z,26.03
2023-11-23T22:17:47.548Z,16.67
2023-11-23T22:20:24.261Z,7.50
2023-11-23T22:22:56.793Z,11.53
2023-11-23T22:25:34.518Z,17.97
2023-11-23T22:28:11.616Z,8.97
2023-11-23T22:30:45.339Z,11.57
2023-11-23T22:33:21.505Z,22.27
2023-11-23T22:36:34.475Z,23.17
2023-11-23T22:39:10.687Z,14.40
2023-11-23T22:41:44.829Z,18.00
2023-11-23T22:44:37.411Z,15.07
2023-11-23T22:47:13.501Z,24.43
2023-11-23T22:49:52.090Z,23.40
2023-11-23T22:52:23.970Z,19.00
2023-11-23T22:54:55.621Z,15.60
2023-11-23T22:57:27.995Z,16.93
2023-11-23T23:00:02.053Z,19.83
2023-11-23T23:02:34.662Z,23.30
2023-11-23T23:05:32.322Z,20.93
2023-11-23T23:08:04.587Z,14.27
2023-11-23T23:10:41.581Z,18.70
2023-11-23T23:13:14.599Z,15.47
2023-11-23T23:15:46.968Z,12.50
2023-11-23T23:18:18.990Z,15.47
2023-11-23T23:20:53.513Z,15.13
2023-11-23T23:23:28.255Z,16.17
2023-11-23T23:26:07.195Z,24.80
2023-11-23T23:28:39.072Z,15.47
2023-11-23T23:31:10.708Z,14.37
2023-11-23T23:33:42.475Z,14.30
2023-11-23T23:36:22.189Z,13.77
2023-11-23T23:38:56.763Z,16.23
2023-11-23T23:41:36.155Z,11.80
2023-11-23T23:44:07.891Z,22.60
2023-11-23T23:46:39.677Z,17.73
2023-11-23T23:49:14.551Z,23.90
2023-11-23T23:51:48.974Z,21.83
2023-11-23T23:54:23.930Z,11.60
2023-11-23T23:56:59.171Z,14.30
2023-11-23T23:59:31.435Z,17.77
